logo
Search for airport 
image banner adimage banner adimage banner ad
image banner ad

OIKP - Bandar Abbass / Havadarya

Located in Bandar Abbass, Iran, Islamic Republic of

ICAO - OIKP, IATA - HDR

Data provided by Airmate  

General information

Coordinates: N27°9'34" E56°10'19"
Elevation is 19 feet MSL.
 
View others Airports in Hormozgan Province

Operational data

Special qualification required
Current time UTC:
Current local time:
METAR: OIKB 130630Z 22004KT 7000 FEW030 BKN200 29/19 Q1006 A2972
TAF: TAF OIKB 130530Z 1306/1412 05008KT 7000 FEW030 SCT100 TEMPO 1306/1309 05014KT FEW030 BKN100 TEMPO 1309/1312 10016KT TEMPO 1312/1321 21012G24KT 4000 SA/HZ BECMG 1320/1322 4000 HZ/BR TEMPO 1409/1412 21014G26KT 4000 SA/HZ
View NOTAMs / SUP AIP / TFR affecting this airport [VIEW]
Communications frequencies: [VIEW]

Runways:

RWY identifierQFULength (ft)Width (ft)SurfaceLDA (ft)
0878°8527115ASP
26258°8527115ASP

Airport contact information

Address: Bandar Abbass Iran, Islamic Republic of

Satellite view of OIKP